Time,TemperatureF,DewpointF,PressureIn,WindDirection,WindDirectionDegrees,WindSpeedMPH,WindSpeedGustMPH,Humidity,HourlyPrecipIn,Conditions,Clouds,dailyrainin,SoftwareType,DateUTC
2013-05-29 00:02:00,66.0,64.0,-100.00,NW,315,1.0,2.0,94,-99.99,,,-99.99,,2013-05-29 04:02:00,
2013-05-29 00:13:00,65.0,64.0,-100.00,South,190,1.0,1.0,94,-99.99,,,-99.99,,2013-05-29 04:13:00,
2013-05-29 00:23:00,65.0,63.0,-100.00,WSW,255,1.0,1.0,93,-99.99,,,-99.99,,2013-05-29 04:23:00,
2013-05-29 00:33:00,64.0,63.0,-100.00,SE,140,0.0,1.0,95,-99.99,,,-99.99,,2013-05-29 04:33:00,
2013-05-29 00:42:00,64.0,63.0,-100.00,SE,140,0.0,1.0,95,-99.99,,,-99.99,,2013-05-29 04:42:00,
2013-05-29 00:52:00,65.0,63.0,-100.00,SSW,200,1.0,1.0,94,-99.99,,,-99.99,,2013-05-29 04:52:00,
2013-05-29 01:03:00,65.0,63.0,-100.00,SSW,200,1.0,1.0,94,-99.99,,,-99.99,,2013-05-29 05:03:00,
2013-05-29 01:12:00,64.0,63.0,-100.00,WNW,300,1.0,3.0,96,-99.99,,,-99.99,,2013-05-29 05:12:00,
2013-05-29 01:22:00,64.0,64.0,-100.00,ESE,120,1.0,1.0,99,-99.99,,,-99.99,,2013-05-29 05:22:00,
2013-05-29 01:33:00,64.0,63.0,-100.00,SE,135,0.0,1.0,99,-99.99,,,-99.99,,2013-05-29 05:33:00,
2013-05-29 01:42:00,63.0,62.0,-100.00,SE,130,0.0,0.0,95,-99.99,,,-99.99,,2013-05-29 05:42:00,
2013-05-29 01:52:00,63.0,62.0,-100.00,SE,130,0.0,0.0,94,-99.99,,,-99.99,,2013-05-29 05:52:00,
2013-05-29 02:02:00,63.0,63.0,-100.00,SSW,195,0.0,1.0,99,-99.99,,,-99.99,,2013-05-29 06:02:00,
2013-05-29 02:12:00,64.0,63.0,-100.00,SW,220,0.0,1.0,99,-99.99,,,-99.99,,2013-05-29 06:12:00,
2013-05-29 02:21:00,63.0,63.0,-100.00,SSW,205,1.0,1.0,99,-99.99,,,-99.99,,2013-05-29 06:21:00,
2013-05-29 02:32:00,63.0,61.0,-100.00,SW,220,0.0,1.0,95,-99.99,,,-99.99,,2013-05-29 06:32:00,
2013-05-29 02:42:00,63.0,59.0,-100.00,SSW,205,1.0,1.0,88,-99.99,,,-99.99,,2013-05-29 06:42:00,
2013-05-29 02:52:00,62.0,62.0,-100.00,SSW,210,0.0,1.0,99,-99.99,,,-99.99,,2013-05-29 06:52:00,
2013-05-29 03:01:00,62.0,61.0,-100.00,SW,220,1.0,1.0,97,-99.99,,,-99.99,,2013-05-29 07:01:00,
2013-05-29 03:12:00,62.0,62.0,-100.00,SW,215,0.0,1.0,99,-99.99,,,-99.99,,2013-05-29 07:12:00,
2013-05-29 03:22:00,62.0,62.0,-100.00,SW,220,1.0,2.0,99,-99.99,,,-99.99,,2013-05-29 07:22:00,
2013-05-29 03:34:00,62.0,62.0,-100.00,South,190,0.0,0.0,99,-99.99,,,-99.99,,2013-05-29 07:34:00,
2013-05-29 03:42:00,62.0,62.0,-100.00,SE,125,0.0,1.0,99,-99.99,,,-99.99,,2013-05-29 07:42:00,
2013-05-29 03:52:00,62.0,62.0,-100.00,SE,130,0.0,1.0,99,-99.99,,,-99.99,,2013-05-29 07:52:00,
2013-05-29 04:02:00,62.0,62.0,-100.00,WSW,250,0.0,1.0,99,-99.99,,,-99.99,,2013-05-29 08:02:00,
2013-05-29 04:11:00,62.0,62.0,-100.00,SSW,210,0.0,1.0,98,-99.99,,,-99.99,,2013-05-29 08:11:00,
2013-05-29 04:22:00,62.0,61.0,-100.00,South,180,0.0,1.0,98,-99.99,,,-99.99,,2013-05-29 08:22:00,
2013-05-29 04:32:00,62.0,61.0,-100.00,West,260,0.0,1.0,99,-99.99,,,-99.99,,2013-05-29 08:32:00,
2013-05-29 04:42:00,62.0,61.0,-100.00,West,260,0.0,1.0,99,-99.99,,,-99.99,,2013-05-29 08:42:00,
2013-05-29 04:52:00,62.0,61.0,-100.00,SW,225,0.0,1.0,99,-99.99,,,-99.99,,2013-05-29 08:52:00,
2013-05-29 05:01:00,61.0,61.0,-100.00,SW,220,0.0,1.0,99,-99.99,,,-99.99,,2013-05-29 09:01:00,
2013-05-29 05:11:00,61.0,61.0,-100.00,SSW,200,0.0,1.0,99,-99.99,,,-99.99,,2013-05-29 09:11:00,
2013-05-29 05:21:00,61.0,60.0,-100.00,SW,235,0.0,1.0,98,-99.99,,,-99.99,,2013-05-29 09:21:00,
2013-05-29 05:33:00,61.0,61.0,-100.00,SW,215,1.0,1.0,99,-99.99,,,-99.99,,2013-05-29 09:33:00,
2013-05-29 05:42:00,61.0,61.0,-100.00,South,190,0.0,1.0,99,-99.99,,,-99.99,,2013-05-29 09:42:00,
2013-05-29 05:52:00,60.0,60.0,-100.00,SSW,195,0.0,1.0,99,-99.99,,,-99.99,,2013-05-29 09:52:00,
2013-05-29 06:03:00,60.0,59.0,-100.00,WSW,240,0.0,2.0,95,-99.99,,,-99.99,,2013-05-29 10:03:00,
2013-05-29 06:12:00,61.0,59.0,-100.00,NNW,345,1.0,2.0,95,-99.99,,,-99.99,,2013-05-29 10:12:00,
2013-05-29 06:22:00,61.0,59.0,-100.00,West,280,1.0,2.0,95,-99.99,,,-99.99,,2013-05-29 10:22:00,
2013-05-29 06:33:00,60.0,59.0,-100.00,SW,220,0.0,0.0,95,-99.99,,,-99.99,,2013-05-29 10:33:00,
2013-05-29 06:42:00,60.0,59.0,-100.00,SW,220,0.0,0.0,95,-99.99,,,-99.99,,2013-05-29 10:42:00,
2013-05-29 06:53:00,60.0,59.0,-100.00,South,190,1.0,2.0,96,-99.99,,,-99.99,,2013-05-29 10:53:00,
2013-05-29 07:02:00,60.0,59.0,-100.00,WSW,240,1.0,1.0,97,-99.99,,,-99.99,,2013-05-29 11:02:00,
2013-05-29 07:12:00,60.0,59.0,-100.00,NW,310,2.0,3.0,97,-99.99,,,-99.99,,2013-05-29 11:12:00,
2013-05-29 07:22:00,60.0,60.0,-100.00,NW,305,1.0,2.0,97,-99.99,,,-99.99,,2013-05-29 11:22:00,
2013-05-29 07:32:00,61.0,60.0,-100.00,NW,310,1.0,1.0,97,-99.99,,,-99.99,,2013-05-29 11:32:00,
2013-05-29 07:42:00,62.0,61.0,-100.00,West,270,1.0,2.0,97,-99.99,,,-99.99,,2013-05-29 11:42:00,
2013-05-29 07:52:00,63.0,62.0,-100.00,SSW,205,2.0,3.0,97,-99.99,,,-99.99,,2013-05-29 11:52:00,
2013-05-29 08:01:00,63.0,62.0,-100.00,South,185,2.0,4.0,97,-99.99,,,-99.99,,2013-05-29 12:01:00,
2013-05-29 08:11:00,64.0,63.0,-100.00,SW,220,1.0,5.0,97,-99.99,,,-99.99,,2013-05-29 12:11:00,
2013-05-29 08:22:00,65.0,65.0,-100.00,SSW,195,4.0,6.0,98,-99.99,,,-99.99,,2013-05-29 12:22:00,
2013-05-29 08:32:00,67.0,64.0,-100.00,South,185,4.0,6.0,90,-99.99,,,-99.99,,2013-05-29 12:32:00,
2013-05-29 08:42:00,69.0,64.0,-100.00,SSW,205,1.0,5.0,85,-99.99,,,-99.99,,2013-05-29 12:42:00,
2013-05-29 08:52:00,72.0,66.0,-100.00,SSW,205,3.0,4.0,81,-99.99,,,-99.99,,2013-05-29 12:52:00,
2013-05-29 09:02:00,72.0,66.0,-100.00,SSW,205,3.0,4.0,81,-99.99,,,-99.99,,2013-05-29 13:02:00,
2013-05-29 09:11:00,72.0,66.0,-100.00,SSW,205,4.0,6.0,80,-99.99,,,-99.99,,2013-05-29 13:11:00,
2013-05-29 09:22:00,73.0,66.0,-100.00,SSW,200,2.0,6.0,79,-99.99,,,-99.99,,2013-05-29 13:22:00,
2013-05-29 09:32:00,74.0,66.0,-100.00,SSW,200,2.0,7.0,76,-99.99,,,-99.99,,2013-05-29 13:32:00,
2013-05-29 09:42:00,74.0,66.0,-100.00,SSW,200,2.0,7.0,76,-99.99,,,-99.99,,2013-05-29 13:42:00,
2013-05-29 09:53:00,75.0,65.0,-100.00,South,190,2.0,8.0,71,-99.99,,,-99.99,,2013-05-29 13:53:00,
2013-05-29 10:02:00,76.0,66.0,-100.00,South,190,4.0,7.0,71,-99.99,,,-99.99,,2013-05-29 14:02:00,
2013-05-29 10:11:00,75.0,65.0,-100.00,South,185,4.0,10.0,71,-99.99,,,-99.99,,2013-05-29 14:11:00,
2013-05-29 10:22:00,77.0,66.0,-100.00,SSE,165,1.0,6.0,69,-99.99,,,-99.99,,2013-05-29 14:22:00,
2013-05-29 10:32:00,77.0,65.0,-100.00,SSE,150,3.0,8.0,67,-99.99,,,-99.99,,2013-05-29 14:32:00,
2013-05-29 10:42:00,78.0,66.0,-100.00,South,190,4.0,9.0,67,-99.99,,,-99.99,,2013-05-29 14:42:00,
2013-05-29 10:52:00,78.0,66.0,-100.00,SE,135,4.0,10.0,65,-99.99,,,-99.99,,2013-05-29 14:52:00,
2013-05-29 11:01:00,78.0,66.0,-100.00,SE,135,4.0,10.0,65,-99.99,,,-99.99,,2013-05-29 15:01:00,
2013-05-29 11:11:00,79.0,66.0,-100.00,South,170,3.0,10.0,65,-99.99,,,-99.99,,2013-05-29 15:11:00,
2013-05-29 11:21:00,80.0,66.0,-100.00,SSE,165,2.0,6.0,63,-99.99,,,-99.99,,2013-05-29 15:21:00,
2013-05-29 11:33:00,80.0,66.0,-100.00,SE,125,3.0,10.0,62,-99.99,,,-99.99,,2013-05-29 15:33:00,
2013-05-29 11:42:00,80.0,66.0,-100.00,ESE,120,4.0,7.0,63,-99.99,,,-99.99,,2013-05-29 15:42:00,
2013-05-29 11:53:00,81.0,66.0,-100.00,South,170,4.0,9.0,61,-99.99,,,-99.99,,2013-05-29 15:53:00,
2013-05-29 12:03:00,81.0,67.0,-100.00,SSW,205,3.0,9.0,61,-99.99,,,-99.99,,2013-05-29 16:03:00,
2013-05-29 12:13:00,81.0,66.0,-100.00,SE,145,3.0,10.0,61,-99.99,,,-99.99,,2013-05-29 16:13:00,
2013-05-29 12:22:00,81.0,66.0,-100.00,ESE,105,3.0,9.0,60,-99.99,,,-99.99,,2013-05-29 16:22:00,
2013-05-29 12:33:00,82.0,66.0,-100.00,SSE,165,3.0,10.0,59,-99.99,,,-99.99,,2013-05-29 16:33:00,
2013-05-29 12:42:00,83.0,66.0,-100.00,ENE,70,4.0,11.0,58,-99.99,,,-99.99,,2013-05-29 16:42:00,
2013-05-29 12:52:00,83.0,66.0,-100.00,East,85,3.0,8.0,58,-99.99,,,-99.99,,2013-05-29 16:52:00,
2013-05-29 13:00:00,83.0,65.0,-100.00,SSE,150,4.0,9.0,56,-99.99,,,-99.99,,2013-05-29 17:00:00,
2013-05-29 13:02:00,83.0,66.0,-100.00,SE,135,3.0,9.0,58,-99.99,,,-99.99,,2013-05-29 17:02:00,
2013-05-29 13:12:00,83.0,66.0,-100.00,SE,135,3.0,9.0,58,-99.99,,,-99.99,,2013-05-29 17:12:00,
2013-05-29 13:22:00,83.0,66.0,-100.00,ENE,75,2.0,11.0,57,-99.99,,,-99.99,,2013-05-29 17:22:00,
2013-05-29 13:32:00,83.0,65.0,-100.00,SSE,150,4.0,9.0,56,-99.99,,,-99.99,,2013-05-29 17:32:00,
2013-05-29 13:42:00,83.0,65.0,-100.00,SSE,150,4.0,9.0,56,-99.99,,,-99.99,,2013-05-29 17:42:00,
2013-05-29 13:52:00,83.0,65.0,-100.00,SSE,150,4.0,9.0,56,-99.99,,,-99.99,,2013-05-29 17:52:00,
2013-05-29 20:52:00,75.0,61.0,-100.00,SSE,155,1.0,1.0,62,-99.99,,,-99.99,,2013-05-30 00:52:00,
2013-05-29 21:02:00,75.0,61.0,-100.00,SSE,155,1.0,1.0,62,-99.99,,,-99.99,,2013-05-30 01:02:00,
2013-05-29 21:11:00,74.0,63.0,-100.00,South,180,1.0,1.0,69,-99.99,,,-99.99,,2013-05-30 01:11:00,
2013-05-29 21:22:00,72.0,65.0,-100.00,South,180,0.0,1.0,78,-99.99,,,-99.99,,2013-05-30 01:22:00,
2013-05-29 21:32:00,72.0,65.0,-100.00,SE,140,1.0,1.0,79,-99.99,,,-99.99,,2013-05-30 01:32:00,
2013-05-29 21:42:00,71.0,65.0,-100.00,SSE,155,0.0,1.0,82,-99.99,,,-99.99,,2013-05-30 01:42:00,
2013-05-29 21:52:00,70.0,62.0,-100.00,NW,320,2.0,3.0,76,-99.99,,,-99.99,,2013-05-30 01:52:00,
2013-05-29 22:01:00,70.0,62.0,-100.00,NW,320,2.0,3.0,76,-99.99,,,-99.99,,2013-05-30 02:01:00,
2013-05-29 22:11:00,69.0,62.0,-100.00,NW,320,1.0,4.0,79,-99.99,,,-99.99,,2013-05-30 02:11:00,
2013-05-29 22:22:00,68.0,62.0,-100.00,West,280,2.0,4.0,81,-99.99,,,-99.99,,2013-05-30 02:22:00,
2013-05-29 22:32:00,68.0,64.0,-100.00,WNW,295,1.0,3.0,86,-99.99,,,-99.99,,2013-05-30 02:32:00,
2013-05-29 22:42:00,68.0,64.0,-100.00,WNW,295,1.0,3.0,86,-99.99,,,-99.99,,2013-05-30 02:42:00,
2013-05-29 22:52:00,68.0,64.0,-100.00,WNW,295,1.0,3.0,86,-99.99,,,-99.99,,2013-05-30 02:52:00,
2013-05-29 23:02:00,67.0,63.0,-100.00,SW,235,1.0,1.0,89,-99.99,,,-99.99,,2013-05-30 03:02:00,
2013-05-29 23:11:00,66.0,63.0,-100.00,West,275,1.0,1.0,90,-99.99,,,-99.99,,2013-05-30 03:11:00,
2013-05-29 23:21:00,66.0,63.0,-100.00,WNW,290,0.0,1.0,91,-99.99,,,-99.99,,2013-05-30 03:21:00,
2013-05-29 23:33:00,66.0,65.0,-100.00,East,95,0.0,0.0,98,-99.99,,,-99.99,,2013-05-30 03:33:00,
2013-05-29 23:43:00,65.0,65.0,-100.00,East,80,0.0,1.0,99,-99.99,,,-99.99,,2013-05-30 03:43:00,
2013-05-29 23:53:00,65.0,65.0,-100.00,ENE,70,0.0,1.0,99,-99.99,,,-99.99,,2013-05-30 03:53:00,